Time;durP1;ratioP1;P1;durP2;ratioP2;P2;SDS_P1;SDS_P2;PMS_P1;PMS_P2;Temp;Humidity;BMP_temperature;BMP_pressure;BME280_temperature;BME280_humidity;BME280_pressure;Samples;Min_cycle;Max_cycle;Signal;HPM_P1;HPM_P2
2022/07/01 00:00:56;;;;;;;9.40;8.70;;;22.20;99.90;;;;;;5014648;28;20839;-69
2022/07/01 00:03:49;;;;;;;10.00;9.23;;;22.20;99.90;;;;;;5014570;28;20461;-69
2022/07/01 00:06:38;;;;;;;7.20;6.70;;;22.30;99.90;;;;;;5014682;28;20463;-70
2022/07/01 00:09:30;;;;;;;7.20;6.70;;;22.30;99.90;;;;;;5013486;28;20495;-69
2022/07/01 00:12:21;;;;;;;6.70;6.00;;;22.30;99.90;;;;;;5012970;28;20595;-69
2022/07/01 00:15:10;;;;;;;5.07;4.57;;;22.30;99.90;;;;;;5011533;28;20477;-69
2022/07/01 00:17:59;;;;;;;5.40;3.23;;;22.30;99.90;;;;;;5013116;28;20453;-69
2022/07/01 00:20:48;;;;;;;4.33;3.93;;;22.30;99.90;;;;;;5015659;28;20625;-69
2022/07/01 00:23:38;;;;;;;3.10;2.90;;;22.20;99.90;;;;;;5033481;28;20573;-69
2022/07/01 00:26:27;;;;;;;6.73;3.50;;;22.20;99.90;;;;;;5034968;28;20518;-68
2022/07/01 00:29:19;;;;;;;3.30;3.00;;;22.20;99.90;;;;;;5019300;28;20448;-69
2022/07/01 00:32:09;;;;;;;3.17;2.87;;;22.00;99.90;;;;;;5015119;28;20687;-69
2022/07/01 00:34:57;;;;;;;4.93;3.30;;;21.80;99.90;;;;;;5012647;28;20492;-69
2022/07/01 00:37:48;;;;;;;3.40;3.20;;;21.80;99.90;;;;;;5014886;28;20559;-69
2022/07/01 00:40:36;;;;;;;4.40;3.30;;;21.70;99.90;;;;;;5014352;28;21038;-69
2022/07/01 00:43:36;;;;;;;3.73;3.00;;;21.60;99.90;;;;;;5015210;28;20475;-69
2022/07/01 00:46:42;;;;;;;3.20;2.90;;;21.60;99.90;;;;;;5013169;28;20845;-69
2022/07/01 00:49:31;;;;;;;7.73;4.30;;;21.50;99.90;;;;;;5008661;28;20459;-69
2022/07/01 00:52:19;;;;;;;3.80;3.40;;;21.50;99.90;;;;;;5014144;28;20687;-69
2022/07/01 00:55:12;;;;;;;3.93;3.63;;;21.40;99.90;;;;;;5016828;28;20533;-69
2022/07/01 00:58:00;;;;;;;4.17;3.77;;;21.30;99.90;;;;;;5017592;28;20488;-69
2022/07/01 01:00:50;;;;;;;4.70;4.30;;;21.30;99.90;;;;;;5017233;28;20539;-69
2022/07/01 01:03:39;;;;;;;6.23;3.63;;;21.30;99.90;;;;;;5015420;28;20448;-68
2022/07/01 01:06:31;;;;;;;3.97;3.60;;;21.20;99.90;;;;;;5014536;28;20467;-69
2022/07/01 01:09:19;;;;;;;5.00;3.70;;;21.10;99.90;;;;;;5016804;28;21140;-68
2022/07/01 01:12:11;;;;;;;6.50;4.60;;;21.10;99.90;;;;;;5016660;28;20465;-69
2022/07/01 01:15:01;;;;;;;9.40;4.77;;;21.00;99.90;;;;;;5012352;28;21117;-69
2022/07/01 01:17:51;;;;;;;4.47;4.17;;;21.00;99.90;;;;;;5013744;28;20551;-69
2022/07/01 01:20:45;;;;;;;4.87;4.20;;;20.90;99.90;;;;;;5015341;28;20537;-69
2022/07/01 01:23:44;;;;;;;4.73;4.30;;;20.90;99.90;;;;;;5015964;28;20966;-69
2022/07/01 01:26:32;;;;;;;4.87;4.40;;;20.90;99.90;;;;;;5018217;28;20456;-69
2022/07/01 01:29:20;;;;;;;5.53;5.13;;;20.80;99.90;;;;;;5019056;28;20487;-69
2022/07/01 01:32:15;;;;;;;5.57;4.97;;;20.70;99.90;;;;;;5018940;28;20594;-69
2022/07/01 01:35:04;;;;;;;5.50;4.70;;;20.60;99.90;;;;;;5016865;28;20482;-69
2022/07/01 01:37:58;;;;;;;5.73;4.63;;;20.60;99.90;;;;;;5013939;28;20550;-69
2022/07/01 01:40:46;;;;;;;4.90;4.50;;;20.70;99.90;;;;;;5015307;28;20533;-69
2022/07/01 01:43:35;;;;;;;5.20;4.80;;;20.70;99.90;;;;;;5016371;28;20464;-69
2022/07/01 01:46:28;;;;;;;5.93;4.90;;;20.70;99.90;;;;;;5021160;28;20543;-69
2022/07/01 01:49:17;;;;;;;5.30;4.80;;;20.70;99.90;;;;;;5016102;28;20475;-69
2022/07/01 01:52:06;;;;;;;5.90;5.13;;;20.70;99.90;;;;;;5021355;28;21043;-68
2022/07/01 01:55:09;;;;;;;5.73;4.70;;;20.60;99.90;;;;;;5033293;28;20538;-68
2022/07/01 01:58:02;;;;;;;5.10;4.70;;;20.60;99.90;;;;;;5031295;28;20597;-69
2022/07/01 02:00:50;;;;;;;5.50;4.87;;;20.60;99.90;;;;;;5029780;28;20498;-69
2022/07/01 02:03:43;;;;;;;5.30;4.90;;;20.60;99.90;;;;;;5019887;28;20502;-69
2022/07/01 02:06:33;;;;;;;4.97;4.57;;;20.60;99.90;;;;;;5017076;28;20472;-69
2022/07/01 02:09:44;;;;;;;5.23;4.73;;;20.50;99.90;;;;;;5012058;28;20462;-69
2022/07/01 02:12:36;;;;;;;5.87;5.30;;;20.50;99.90;;;;;;5020298;28;20916;-68
2022/07/01 02:15:24;;;;;;;5.30;4.90;;;20.40;99.90;;;;;;5013764;28;20481;-69
2022/07/01 02:18:12;;;;;;;5.60;5.10;;;20.40;99.90;;;;;;5016726;28;20550;-69
2022/07/01 02:21:20;;;;;;;4.97;4.57;;;20.40;99.90;;;;;;5020758;28;21038;-68
2022/07/01 02:24:24;;;;;;;5.23;4.83;;;20.40;99.90;;;;;;5019547;28;20537;-69
2022/07/01 02:27:13;;;;;;;4.93;4.53;;;20.40;99.90;;;;;;5017006;28;20558;-69
2022/07/01 02:30:03;;;;;;;5.90;5.37;;;20.40;99.90;;;;;;5021783;28;20525;-68
2022/07/01 02:32:51;;;;;;;4.93;4.53;;;20.40;99.90;;;;;;5016520;28;20514;-69
2022/07/01 02:35:41;;;;;;;6.10;5.60;;;20.30;99.90;;;;;;5018351;28;20468;-70
2022/07/01 02:38:33;;;;;;;5.47;5.03;;;20.30;99.90;;;;;;5016598;28;20952;-69
2022/07/01 02:41:23;;;;;;;7.43;5.07;;;20.30;99.90;;;;;;5018166;28;20480;-69
2022/07/01 02:44:12;;;;;;;6.10;5.50;;;20.40;99.90;;;;;;5019184;28;21053;-68
2022/07/01 02:47:03;;;;;;;5.60;5.20;;;20.40;99.90;;;;;;5020161;28;20583;-69
2022/07/01 02:49:56;;;;;;;5.77;5.33;;;20.40;99.90;;;;;;5017167;28;20519;-68
2022/07/01 02:52:53;;;;;;;6.30;5.80;;;20.40;99.90;;;;;;5020158;28;20451;-69
2022/07/01 02:55:45;;;;;;;6.70;6.10;;;20.30;99.90;;;;;;5013533;28;20625;-69
2022/07/01 02:58:34;;;;;;;6.50;5.90;;;20.30;99.90;;;;;;5018635;28;20951;-69
2022/07/01 03:01:28;;;;;;;6.27;5.67;;;20.30;99.90;;;;;;5017847;28;21003;-69
2022/07/01 03:04:19;;;;;;;7.90;6.17;;;20.30;99.90;;;;;;5016649;28;20478;-69
2022/07/01 03:07:35;;;;;;;6.67;6.07;;;20.30;99.90;;;;;;5019217;28;20448;-69
2022/07/01 03:10:26;;;;;;;6.93;6.33;;;20.30;99.90;;;;;;5019552;28;20504;-68
2022/07/01 03:13:19;;;;;;;6.70;6.20;;;20.30;99.90;;;;;;5016692;28;20456;-69
2022/07/01 03:16:07;;;;;;;7.37;6.77;;;20.30;99.90;;;;;;5015352;28;20573;-69
2022/07/01 03:18:57;;;;;;;7.20;6.60;;;20.20;99.90;;;;;;5018980;28;20501;-69
2022/07/01 03:21:48;;;;;;;8.70;7.53;;;20.20;99.90;;;;;;5018679;28;20611;-69
2022/07/01 03:24:36;;;;;;;7.30;6.63;;;20.20;99.90;;;;;;5016678;28;20488;-69
2022/07/01 03:27:28;;;;;;;9.80;7.67;;;20.20;99.90;;;;;;5018586;28;20455;-69
2022/07/01 03:30:21;;;;;;;7.87;7.10;;;20.10;99.90;;;;;;5018772;28;20469;-69
2022/07/01 03:33:09;;;;;;;7.60;6.90;;;20.10;99.90;;;;;;5018395;28;20541;-69
2022/07/01 03:36:02;;;;;;;7.70;7.00;;;20.10;99.90;;;;;;5019909;28;20480;-69
2022/07/01 03:38:51;;;;;;;7.13;6.53;;;20.20;99.90;;;;;;5019723;28;20491;-69
2022/07/01 03:41:42;;;;;;;7.70;7.10;;;20.20;99.90;;;;;;5020014;28;21015;-69
2022/07/01 03:44:30;;;;;;;11.23;9.53;;;20.20;99.90;;;;;;5019586;28;20486;-69
2022/07/01 03:47:19;;;;;;;10.70;9.73;;;20.20;99.90;;;;;;5018583;28;20463;-69
2022/07/01 03:50:08;;;;;;;10.63;9.73;;;20.10;99.90;;;;;;5017871;28;20603;-69
2022/07/01 03:56:06;;;;;;;11.27;10.27;;;20.00;99.90;;;;;;5016505;28;20574;-69
2022/07/01 03:58:54;;;;;;;10.83;9.90;;;20.00;99.90;;;;;;5015916;28;20910;-69
2022/07/01 04:01:48;;;;;;;10.37;9.57;;;19.90;99.90;;;;;;5017145;28;20946;-69
2022/07/01 04:04:37;;;;;;;11.07;10.17;;;19.90;99.90;;;;;;5016924;28;20519;-69
2022/07/01 04:07:27;;;;;;;10.10;9.30;;;19.90;99.90;;;;;;5014289;28;20503;-69
2022/07/01 04:10:20;;;;;;;10.70;9.80;;;19.90;99.90;;;;;;5017269;28;20479;-69
2022/07/01 04:13:12;;;;;;;10.63;9.77;;;19.90;99.90;;;;;;5017891;28;20454;-69
2022/07/01 04:16:31;;;;;;;10.10;9.40;;;19.90;99.90;;;;;;5016103;28;20483;-67
2022/07/01 04:19:25;;;;;;;10.33;9.57;;;19.90;99.90;;;;;;5014243;28;21328;-69
2022/07/01 04:22:35;;;;;;;9.10;8.30;;;19.90;99.90;;;;;;5017111;28;20983;-69
2022/07/01 04:25:23;;;;;;;10.00;9.20;;;19.70;99.90;;;;;;5017460;28;21008;-69
2022/07/01 04:28:13;;;;;;;9.47;8.77;;;19.70;99.90;;;;;;5018483;28;20451;-68
2022/07/01 04:31:04;;;;;;;8.67;8.07;;;19.70;99.90;;;;;;5016661;28;20518;-67
2022/07/01 04:33:52;;;;;;;9.30;8.50;;;19.70;99.90;;;;;;5016045;28;20546;-67
2022/07/01 04:36:40;;;;;;;8.30;7.70;;;19.70;99.90;;;;;;5019087;28;20554;-69
2022/07/01 04:39:31;;;;;;;8.30;7.60;;;19.80;99.90;;;;;;5011578;28;20470;-67
2022/07/01 04:42:39;;;;;;;8.20;7.53;;;19.70;99.90;;;;;;5011836;28;20543;-65
2022/07/01 04:45:29;;;;;;;8.40;7.80;;;19.70;99.90;;;;;;5018858;28;20555;-69
2022/07/01 04:48:21;;;;;;;8.07;7.47;;;19.70;99.90;;;;;;5027766;28;20463;-66
2022/07/01 04:51:39;;;;;;;8.07;7.57;;;19.70;99.90;;;;;;5026725;28;20475;-65
2022/07/01 04:54:31;;;;;;;8.30;7.70;;;19.70;99.90;;;;;;5028112;28;20602;-65
2022/07/01 04:57:19;;;;;;;8.90;8.30;;;19.70;99.90;;;;;;5018006;28;20537;-65
2022/07/01 05:00:10;;;;;;;9.20;8.50;;;19.60;99.90;;;;;;5017479;28;20536;-66
2022/07/01 05:03:00;;;;;;;10.50;9.60;;;19.60;99.90;;;;;;5016369;28;20484;-65
2022/07/01 05:05:51;;;;;;;11.23;10.13;;;19.50;99.90;;;;;;5018475;28;20470;-65
2022/07/01 05:08:45;;;;;;;10.10;9.10;;;19.50;99.90;;;;;;5014536;28;20589;-65
2022/07/01 05:11:35;;;;;;;9.17;8.27;;;19.50;99.90;;;;;;5013837;28;20567;-65
2022/07/01 05:14:24;;;;;;;10.67;9.10;;;19.50;99.90;;;;;;5011902;28;20549;-67
2022/07/01 05:17:16;;;;;;;12.60;9.60;;;19.50;99.90;;;;;;5013343;28;20475;-67
2022/07/01 05:23:19;;;;;;;11.83;10.20;;;19.20;99.90;;;;;;5021475;28;20523;-66
2022/07/01 05:26:08;;;;;;;11.97;9.30;;;19.20;99.90;;;;;;5020521;28;20502;-66
2022/07/01 05:28:56;;;;;;;9.03;8.17;;;19.10;99.90;;;;;;5013842;28;21395;-67
2022/07/01 05:31:46;;;;;;;8.53;7.30;;;19.10;99.90;;;;;;5014224;28;20694;-67
2022/07/01 05:34:40;;;;;;;8.53;5.90;;;19.10;99.90;;;;;;4997655;28;20472;-67
2022/07/01 05:37:32;;;;;;;8.33;5.20;;;19.00;99.90;;;;;;4996160;28;20569;-67
2022/07/01 05:40:23;;;;;;;6.87;5.00;;;19.00;99.90;;;;;;5010302;28;20522;-68
2022/07/01 05:43:11;;;;;;;6.77;5.27;;;18.80;99.90;;;;;;5002649;28;20456;-71
2022/07/01 05:46:00;;;;;;;6.07;4.40;;;18.70;99.90;;;;;;5020642;28;20479;-68
2022/07/01 05:48:48;;;;;;;6.73;4.00;;;18.60;99.90;;;;;;5018169;28;20454;-68
2022/07/01 05:51:39;;;;;;;3.83;3.17;;;18.50;99.90;;;;;;5020762;28;20458;-68
2022/07/01 05:54:34;;;;;;;4.70;3.60;;;18.50;99.90;;;;;;5011009;28;20545;-69
2022/07/01 05:57:22;;;;;;;4.67;3.07;;;18.30;99.90;;;;;;5010179;28;20468;-69
2022/07/01 06:00:12;;;;;;;5.43;3.80;;;18.30;99.90;;;;;;5009060;28;20484;-69
2022/07/01 06:03:00;;;;;;;8.07;3.57;;;18.30;99.90;;;;;;5011585;28;20895;-69
2022/07/01 06:05:49;;;;;;;5.63;3.70;;;18.30;99.90;;;;;;4992180;28;20799;-69
2022/07/01 06:08:37;;;;;;;5.53;3.50;;;18.30;99.90;;;;;;5009426;28;21011;-69
2022/07/01 06:11:27;;;;;;;4.17;3.17;;;18.30;99.90;;;;;;5006775;28;20488;-69
2022/07/01 06:14:15;;;;;;;4.67;2.97;;;18.20;99.90;;;;;;5010230;28;20602;-69
2022/07/01 06:17:04;;;;;;;3.87;2.93;;;18.10;99.90;;;;;;5005699;28;20562;-69
2022/07/01 06:19:53;;;;;;;6.23;3.00;;;18.10;99.90;;;;;;5007858;28;20494;-69
2022/07/01 06:22:41;;;;;;;3.23;2.93;;;18.10;99.90;;;;;;5009626;28;20459;-69
2022/07/01 06:25:29;;;;;;;2.97;2.67;;;18.00;99.90;;;;;;5002407;28;21171;-69
2022/07/01 06:28:19;;;;;;;2.90;2.60;;;18.00;99.90;;;;;;5006297;28;20455;-69
2022/07/01 06:31:07;;;;;;;3.40;2.63;;;17.90;99.90;;;;;;5008883;28;20545;-69
2022/07/01 06:33:56;;;;;;;4.80;2.83;;;17.90;99.90;;;;;;5009006;28;20587;-69
2022/07/01 06:36:44;;;;;;;3.37;2.57;;;17.90;99.90;;;;;;5011271;28;20480;-69
2022/07/01 06:39:35;;;;;;;3.10;2.33;;;17.90;99.90;;;;;;5005861;28;20559;-69
2022/07/01 06:42:23;;;;;;;3.57;2.23;;;17.90;99.90;;;;;;5007615;28;20804;-70
2022/07/01 06:45:13;;;;;;;4.27;2.20;;;17.90;99.90;;;;;;5016071;28;20958;-69
2022/07/01 06:48:03;;;;;;;4.00;2.60;;;17.90;99.90;;;;;;5009523;28;21537;-69
2022/07/01 06:50:51;;;;;;;4.50;2.50;;;17.90;99.90;;;;;;5007949;28;20845;-69
2022/07/01 06:53:41;;;;;;;2.27;2.07;;;17.90;99.90;;;;;;5002685;28;20470;-69
2022/07/01 06:56:31;;;;;;;3.20;2.93;;;17.80;99.90;;;;;;5011248;28;20563;-69
2022/07/01 06:59:19;;;;;;;3.40;2.43;;;17.80;99.90;;;;;;5008460;28;20467;-69
2022/07/01 07:02:12;;;;;;;3.77;3.17;;;17.80;99.90;;;;;;5009012;28;20482;-69
2022/07/01 07:05:00;;;;;;;3.13;2.50;;;17.70;99.90;;;;;;5003746;28;20487;-69
2022/07/01 07:07:51;;;;;;;4.30;2.77;;;17.70;99.90;;;;;;5012363;28;20458;-69
2022/07/01 07:10:42;;;;;;;3.10;2.77;;;17.70;99.90;;;;;;5002809;28;20514;-69
2022/07/01 07:13:30;;;;;;;3.53;2.93;;;17.70;99.90;;;;;;5004395;28;20559;-69
2022/07/01 07:16:20;;;;;;;2.80;2.60;;;17.70;99.90;;;;;;5006479;28;20487;-69
2022/07/01 07:19:15;;;;;;;3.70;3.27;;;17.80;99.90;;;;;;5006723;28;20536;-70
2022/07/01 07:22:03;;;;;;;3.07;2.87;;;17.70;99.90;;;;;;5005319;28;20606;-69
2022/07/01 07:24:52;;;;;;;5.67;3.20;;;17.70;99.90;;;;;;5007007;28;20714;-69
2022/07/01 07:27:40;;;;;;;6.70;3.40;;;17.70;99.90;;;;;;5010616;28;20476;-69
2022/07/01 07:30:28;;;;;;;3.90;3.60;;;17.60;99.90;;;;;;5005916;28;20520;-69
2022/07/01 07:33:17;;;;;;;4.00;3.50;;;17.60;99.90;;;;;;5011199;28;20525;-69
2022/07/01 07:36:07;;;;;;;3.23;3.03;;;17.60;99.90;;;;;;5007461;28;20625;-69
2022/07/01 07:38:58;;;;;;;4.73;3.07;;;17.60;99.90;;;;;;5005163;28;21336;-69
2022/07/01 07:41:49;;;;;;;3.63;3.37;;;17.50;99.90;;;;;;5005432;28;20453;-69
2022/07/01 07:44:39;;;;;;;3.30;3.10;;;17.50;99.90;;;;;;5012390;28;20569;-69
2022/07/01 07:47:28;;;;;;;3.93;3.33;;;17.50;99.90;;;;;;5009918;28;21171;-69
2022/07/01 07:50:17;;;;;;;3.50;3.20;;;17.40;99.90;;;;;;5007343;28;20653;-69
2022/07/01 07:53:11;;;;;;;3.00;2.80;;;17.40;99.90;;;;;;5007476;28;20468;-69
2022/07/01 07:56:00;;;;;;;3.00;2.80;;;17.40;99.90;;;;;;5004734;28;20506;-69
2022/07/01 07:58:50;;;;;;;2.90;2.70;;;17.40;99.90;;;;;;5011887;28;21078;-69
2022/07/01 08:01:39;;;;;;;3.23;3.03;;;17.40;99.90;;;;;;5013560;28;20621;-69
2022/07/01 08:04:28;;;;;;;3.03;2.83;;;17.30;99.90;;;;;;5010051;28;20506;-69
2022/07/01 08:07:17;;;;;;;3.07;2.87;;;17.30;99.90;;;;;;5008416;28;20958;-69
2022/07/01 08:10:09;;;;;;;3.40;3.20;;;17.10;99.90;;;;;;5008562;28;20584;-69
2022/07/01 08:12:59;;;;;;;3.30;3.10;;;17.20;99.90;;;;;;5009169;28;20611;-69
2022/07/01 08:15:48;;;;;;;5.03;4.30;;;17.20;99.90;;;;;;5004567;28;20885;-71
2022/07/01 08:18:36;;;;;;;4.27;3.30;;;17.10;99.90;;;;;;4999648;28;20487;-69
2022/07/01 08:21:25;;;;;;;3.30;3.00;;;17.10;99.90;;;;;;5012391;28;20495;-69
2022/07/01 08:24:13;;;;;;;5.50;4.00;;;17.10;99.90;;;;;;5010274;28;20614;-69
2022/07/01 08:27:03;;;;;;;3.60;3.30;;;17.10;99.90;;;;;;5010595;28;20562;-69
2022/07/01 08:29:54;;;;;;;4.40;4.10;;;17.20;99.90;;;;;;5003704;28;20486;-69
2022/07/01 08:32:42;;;;;;;3.70;3.40;;;17.20;99.90;;;;;;5008005;28;20445;-69
2022/07/01 08:35:31;;;;;;;4.17;3.87;;;17.30;99.90;;;;;;5001377;28;20532;-71
2022/07/01 08:38:19;;;;;;;4.73;4.20;;;17.30;99.90;;;;;;5003327;28;20791;-68
2022/07/01 08:41:14;;;;;;;4.03;3.73;;;17.30;99.90;;;;;;5000364;28;20483;-68
2022/07/01 08:44:04;;;;;;;4.97;4.50;;;17.30;99.90;;;;;;5003383;28;20483;-67
2022/07/01 08:46:52;;;;;;;4.87;3.83;;;17.40;99.90;;;;;;5004249;28;20563;-67
2022/07/01 08:49:40;;;;;;;4.90;3.77;;;17.40;99.90;;;;;;5001474;28;20523;-67
2022/07/01 08:52:29;;;;;;;4.63;4.23;;;17.40;99.90;;;;;;5009206;28;20563;-67
2022/07/01 08:55:17;;;;;;;4.40;4.00;;;17.40;99.90;;;;;;5006909;28;20568;-68
2022/07/01 08:58:06;;;;;;;4.80;4.40;;;17.40;99.90;;;;;;5010770;28;20467;-67
2022/07/01 09:01:13;;;;;;;4.90;4.50;;;17.50;99.90;;;;;;5005252;28;20632;-67
2022/07/01 09:04:14;;;;;;;4.87;4.57;;;17.50;99.90;;;;;;5003584;28;21389;-67
2022/07/01 09:07:07;;;;;;;5.20;4.20;;;17.50;99.90;;;;;;5010376;28;20444;-67
2022/07/01 09:09:55;;;;;;;4.83;4.40;;;17.50;99.90;;;;;;5011491;28;20529;-67
2022/07/01 09:12:44;;;;;;;6.60;4.67;;;17.50;99.90;;;;;;5010477;28;20491;-67
2022/07/01 09:15:36;;;;;;;4.70;4.30;;;17.50;99.90;;;;;;5003381;28;20475;-69
2022/07/01 09:18:27;;;;;;;4.80;4.50;;;17.50;99.90;;;;;;5022156;28;20507;-67
2022/07/01 09:21:18;;;;;;;4.87;4.47;;;17.50;99.90;;;;;;5018566;28;20472;-67
2022/07/01 09:24:24;;;;;;;5.00;4.60;;;17.50;99.90;;;;;;5014081;28;20479;-67
2022/07/01 09:27:13;;;;;;;4.90;4.60;;;17.50;99.90;;;;;;5003979;28;20507;-68
2022/07/01 09:30:02;;;;;;;5.47;5.07;;;17.50;99.90;;;;;;5009106;28;20476;-68
2022/07/01 09:33:06;;;;;;;4.90;4.60;;;17.50;99.90;;;;;;5022610;28;20459;-68
2022/07/01 09:35:57;;;;;;;4.90;4.50;;;17.50;99.90;;;;;;5024104;28;20559;-68
2022/07/01 09:38:48;;;;;;;5.20;4.80;;;17.50;99.90;;;;;;5006140;28;20478;-68
2022/07/01 09:41:37;;;;;;;5.20;4.80;;;17.50;99.90;;;;;;5004760;28;20480;-68
2022/07/01 09:44:29;;;;;;;4.83;4.53;;;17.50;99.90;;;;;;4999089;28;20499;-69
2022/07/01 09:47:17;;;;;;;5.30;4.90;;;17.50;99.90;;;;;;5008750;28;20487;-68
2022/07/01 09:50:09;;;;;;;5.10;4.80;;;17.50;99.90;;;;;;5011089;28;20494;-69
2022/07/01 09:52:59;;;;;;;5.40;5.00;;;17.50;99.90;;;;;;5010799;28;20471;-68
2022/07/01 09:55:48;;;;;;;5.63;5.27;;;17.50;99.90;;;;;;5006261;28;20507;-68
2022/07/01 09:58:38;;;;;;;5.50;5.00;;;17.50;99.90;;;;;;4997427;28;20484;-68
2022/07/01 10:01:28;;;;;;;4.70;4.40;;;17.50;99.90;;;;;;5009074;28;20467;-69
2022/07/01 10:04:18;;;;;;;4.77;4.37;;;17.50;99.90;;;;;;5010377;28;21512;-69
2022/07/01 10:07:21;;;;;;;4.97;4.67;;;17.60;99.90;;;;;;5004693;28;20466;-68
2022/07/01 10:10:33;;;;;;;5.10;4.70;;;17.60;99.90;;;;;;5006968;28;20486;-68
2022/07/01 10:13:26;;;;;;;6.73;5.47;;;17.50;99.90;;;;;;5002798;28;21276;-68
2022/07/01 10:16:18;;;;;;;5.27;4.63;;;17.60;99.90;;;;;;4998267;28;20503;-68
2022/07/01 10:19:27;;;;;;;4.93;4.43;;;17.50;99.90;;;;;;4999430;28;20484;-68
2022/07/01 10:22:30;;;;;;;5.00;4.50;;;17.60;99.90;;;;;;5007769;28;20464;-68
2022/07/01 10:25:41;;;;;;;5.03;4.60;;;17.50;99.90;;;;;;5002842;28;20480;-68
2022/07/01 10:28:30;;;;;;;5.00;4.60;;;17.50;99.90;;;;;;5001527;28;20448;-68
2022/07/01 10:31:19;;;;;;;5.10;4.70;;;17.50;99.90;;;;;;5010148;28;20589;-68
2022/07/01 10:34:08;;;;;;;4.80;4.40;;;17.50;99.90;;;;;;5003326;28;20563;-69
2022/07/01 10:37:03;;;;;;;5.00;4.50;;;17.50;99.90;;;;;;5000733;28;20464;-68
2022/07/01 10:40:00;;;;;;;4.50;4.10;;;17.50;99.90;;;;;;4993787;28;20510;-68
2022/07/01 10:43:01;;;;;;;4.40;4.10;;;17.50;99.90;;;;;;5006249;28;20459;-68
2022/07/01 10:46:10;;;;;;;5.50;5.03;;;17.50;99.90;;;;;;5001222;28;21226;-68
2022/07/01 10:48:58;;;;;;;4.97;4.57;;;17.50;99.90;;;;;;5005858;28;20467;-68
2022/07/01 10:51:49;;;;;;;5.10;4.73;;;17.50;99.90;;;;;;4999255;28;20487;-68
2022/07/01 10:54:53;;;;;;;6.27;5.50;;;17.50;99.90;;;;;;5002137;28;20526;-69
2022/07/01 10:57:45;;;;;;;5.60;5.20;;;17.50;99.90;;;;;;5004568;28;20547;-69
2022/07/01 11:00:37;;;;;;;6.20;5.70;;;17.50;99.90;;;;;;5007663;28;20708;-69
2022/07/01 11:03:25;;;;;;;6.20;5.60;;;17.50;99.90;;;;;;5002810;28;20491;-69
2022/07/01 11:06:14;;;;;;;5.97;5.57;;;17.50;99.90;;;;;;5010217;28;20972;-69
2022/07/01 11:09:02;;;;;;;6.07;5.57;;;17.50;99.90;;;;;;5000929;28;20528;-70
2022/07/01 11:11:51;;;;;;;5.10;4.70;;;17.50;99.90;;;;;;4996514;28;20471;-69
2022/07/01 11:14:41;;;;;;;6.23;5.73;;;17.50;99.90;;;;;;5008715;28;20843;-70
2022/07/01 11:17:32;;;;;;;6.43;5.93;;;17.50;99.90;;;;;;5005516;28;21137;-70
2022/07/01 11:20:23;;;;;;;7.30;6.73;;;17.40;99.90;;;;;;5004758;28;20558;-69
2022/07/01 11:23:16;;;;;;;6.93;6.33;;;17.50;99.90;;;;;;5003243;28;20781;-70
2022/07/01 11:26:04;;;;;;;7.77;7.07;;;17.50;99.90;;;;;;5007028;28;20498;-69
2022/07/01 11:28:54;;;;;;;6.80;6.30;;;17.50;99.90;;;;;;5008192;28;20610;-71
2022/07/01 11:31:42;;;;;;;6.60;6.00;;;17.50;99.90;;;;;;5007056;28;20550;-70
2022/07/01 11:34:32;;;;;;;6.87;6.20;;;17.50;99.90;;;;;;5004837;28;21521;-69
2022/07/01 11:40:28;;;;;;;7.53;6.90;;;17.60;99.90;;;;;;5014636;28;20535;-69
2022/07/01 11:43:21;;;;;;;8.63;8.00;;;17.60;99.90;;;;;;5017292;28;20456;-68
2022/07/01 11:46:10;;;;;;;7.37;6.87;;;17.60;99.90;;;;;;5006266;28;21101;-68
2022/07/01 11:48:58;;;;;;;9.43;8.53;;;17.60;99.90;;;;;;5004194;28;20945;-70
2022/07/01 11:51:57;;;;;;;8.97;8.07;;;17.60;99.90;;;;;;5006259;28;21028;-69
2022/07/01 11:54:48;;;;;;;8.17;7.43;;;17.50;99.90;;;;;;5003866;28;20918;-69
2022/07/01 11:57:36;;;;;;;7.93;7.23;;;17.50;99.90;;;;;;5004450;28;20553;-68
2022/07/01 12:00:34;;;;;;;8.20;7.60;;;17.50;99.90;;;;;;5003200;28;21243;-68
2022/07/01 12:03:32;;;;;;;7.83;6.97;;;17.50;99.90;;;;;;5010562;28;20493;-68
2022/07/01 12:06:23;;;;;;;8.10;7.40;;;17.50;99.90;;;;;;5008805;28;20946;-68
2022/07/01 12:09:15;;;;;;;7.90;7.10;;;17.50;99.90;;;;;;5013167;28;20467;-68
2022/07/01 12:12:08;;;;;;;8.33;7.67;;;17.60;99.90;;;;;;5007741;28;20798;-69
2022/07/01 12:14:57;;;;;;;8.03;7.23;;;17.60;99.90;;;;;;5013843;28;20529;-68
2022/07/01 12:17:46;;;;;;;8.17;7.57;;;17.50;99.90;;;;;;5007786;28;21498;-68
2022/07/01 12:20:34;;;;;;;7.43;6.90;;;17.60;99.90;;;;;;5008179;28;20519;-70
2022/07/01 12:23:22;;;;;;;8.57;7.87;;;17.50;99.90;;;;;;5012528;28;20602;-67
2022/07/01 12:26:17;;;;;;;8.57;7.70;;;17.50;99.90;;;;;;5001255;28;20570;-68
2022/07/01 12:29:05;;;;;;;7.77;7.17;;;17.50;99.90;;;;;;5012046;28;20475;-68
2022/07/01 12:32:04;;;;;;;7.70;7.10;;;17.60;99.90;;;;;;5002652;28;21058;-69
2022/07/01 12:34:57;;;;;;;7.70;7.00;;;17.60;99.90;;;;;;5005345;28;21267;-68
2022/07/01 12:37:48;;;;;;;7.03;6.43;;;17.60;99.90;;;;;;5003837;28;20481;-68
2022/07/01 12:40:36;;;;;;;7.00;6.33;;;17.70;99.90;;;;;;5008261;28;20495;-70
2022/07/01 12:43:31;;;;;;;7.40;6.80;;;17.70;99.90;;;;;;5010845;28;20470;-69
2022/07/01 12:46:28;;;;;;;7.10;6.60;;;17.70;99.90;;;;;;5007475;28;20460;-70
2022/07/01 12:49:21;;;;;;;8.57;6.87;;;17.80;99.90;;;;;;5000592;28;20448;-70
2022/07/01 12:52:26;;;;;;;7.60;6.80;;;17.80;99.90;;;;;;4994202;28;20461;-70
2022/07/01 12:55:16;;;;;;;7.37;6.67;;;17.90;99.90;;;;;;5005849;28;20586;-70
2022/07/01 12:58:08;;;;;;;8.30;6.83;;;17.90;99.90;;;;;;5009513;28;20502;-70
2022/07/01 13:01:00;;;;;;;7.17;6.47;;;17.90;99.90;;;;;;5007436;28;20479;-70
2022/07/01 13:03:50;;;;;;;7.00;6.40;;;18.00;99.90;;;;;;4999821;28;20487;-70
2022/07/01 13:06:38;;;;;;;7.03;6.43;;;18.00;99.90;;;;;;5009867;28;20474;-70
2022/07/01 13:09:26;;;;;;;6.57;5.97;;;18.10;99.90;;;;;;5010407;28;20479;-70
2022/07/01 13:12:15;;;;;;;6.80;6.27;;;18.20;99.90;;;;;;5008591;28;20551;-70
2022/07/01 13:15:04;;;;;;;6.33;5.83;;;18.20;99.90;;;;;;5006886;28;20563;-71
2022/07/01 13:17:53;;;;;;;5.80;5.20;;;18.30;99.90;;;;;;4996307;28;22474;-69
2022/07/01 13:20:42;;;;;;;6.23;5.60;;;18.30;99.90;;;;;;4997469;28;20641;-72
2022/07/01 13:23:33;;;;;;;5.83;5.43;;;18.40;99.90;;;;;;5006303;28;20531;-72
2022/07/01 13:26:23;;;;;;;5.60;5.10;;;18.50;99.90;;;;;;5015216;28;20448;-71
2022/07/01 13:29:15;;;;;;;5.10;4.70;;;18.60;99.90;;;;;;5011255;28;20599;-71
2022/07/01 13:32:04;;;;;;;5.67;5.20;;;18.70;99.90;;;;;;5012441;28;20460;-72
2022/07/01 13:34:54;;;;;;;5.43;5.03;;;18.80;99.90;;;;;;5009734;28;20510;-72
2022/07/01 13:37:43;;;;;;;6.13;5.53;;;18.90;99.90;;;;;;5014204;28;20591;-71
2022/07/01 13:40:31;;;;;;;6.50;6.10;;;19.10;99.90;;;;;;5011949;28;20492;-69
2022/07/01 13:43:20;;;;;;;6.50;6.00;;;19.30;99.90;;;;;;5007503;28;20567;-69
2022/07/01 13:46:10;;;;;;;6.00;5.50;;;19.40;99.90;;;;;;5009188;28;20498;-69
2022/07/01 13:48:58;;;;;;;5.00;4.70;;;19.50;99.90;;;;;;5007006;28;20456;-69
2022/07/01 13:51:50;;;;;;;6.07;5.67;;;19.60;99.90;;;;;;5014686;28;20459;-70
2022/07/01 13:54:38;;;;;;;6.43;5.73;;;19.70;99.90;;;;;;5012186;28;21069;-70
2022/07/01 13:57:27;;;;;;;5.57;5.17;;;19.80;99.90;;;;;;5010781;28;20465;-70
2022/07/01 14:00:17;;;;;;;5.33;4.93;;;19.90;99.90;;;;;;5005894;28;20583;-70
2022/07/01 14:03:05;;;;;;;5.70;5.20;;;19.90;99.90;;;;;;5014969;28;20515;-70
2022/07/01 14:05:54;;;;;;;5.00;4.53;;;19.90;99.90;;;;;;5007725;28;20976;-69
2022/07/01 14:08:44;;;;;;;5.50;5.10;;;19.90;99.90;;;;;;5010487;28;20517;-69
2022/07/01 14:11:32;;;;;;;6.13;5.63;;;19.90;99.90;;;;;;5014707;28;21561;-70
2022/07/01 14:14:20;;;;;;;6.13;5.60;;;19.90;99.90;;;;;;5010650;28;20955;-70
2022/07/01 14:17:09;;;;;;;5.90;5.50;;;20.00;99.90;;;;;;5018045;28;20583;-69
2022/07/01 14:19:58;;;;;;;6.03;5.47;;;20.10;99.90;;;;;;5030921;28;20483;-70
2022/07/01 14:22:49;;;;;;;5.90;5.30;;;20.10;99.90;;;;;;5028542;28;20452;-69
2022/07/01 14:25:39;;;;;;;5.90;5.50;;;20.10;99.90;;;;;;5019190;28;20551;-69
2022/07/01 14:28:28;;;;;;;6.00;5.53;;;20.10;99.90;;;;;;5015085;28;21202;-69
2022/07/01 14:31:16;;;;;;;6.07;5.67;;;20.10;99.90;;;;;;5012456;28;20614;-70
2022/07/01 14:34:05;;;;;;;6.40;5.90;;;20.00;99.90;;;;;;5014393;28;20464;-70
2022/07/01 14:36:53;;;;;;;6.23;5.83;;;20.00;99.90;;;;;;5015241;28;20463;-69
2022/07/01 14:39:41;;;;;;;6.13;5.63;;;20.00;99.90;;;;;;5015585;28;20487;-69
2022/07/01 14:42:31;;;;;;;5.93;5.53;;;20.10;99.90;;;;;;5006491;28;20566;-69
2022/07/01 14:45:21;;;;;;;6.10;5.70;;;20.10;99.90;;;;;;5014663;28;20480;-69
2022/07/01 14:48:10;;;;;;;5.67;5.27;;;20.10;99.90;;;;;;5015913;28;20538;-69
2022/07/01 14:50:58;;;;;;;5.37;4.97;;;19.90;99.90;;;;;;5017689;28;20521;-69
2022/07/01 14:53:47;;;;;;;6.17;5.60;;;19.80;99.90;;;;;;5014619;28;20567;-70
2022/07/01 14:56:42;;;;;;;6.70;6.10;;;19.70;99.90;;;;;;5009190;28;20547;-70
2022/07/01 14:59:31;;;;;;;6.47;5.90;;;19.70;99.90;;;;;;5010625;28;20456;-69